createdAt,value
2019-04-11T00:01:53.461Z,22.77
2019-04-11T00:04:01.889Z,15.00
2019-04-11T00:06:11.804Z,20.48
2019-04-11T00:08:19.836Z,20.60
2019-04-11T00:10:29.147Z,20.57
2019-04-11T00:12:38.904Z,15.93
2019-04-11T00:14:46.997Z,23.55
2019-04-11T00:16:55.411Z,23.67
2019-04-11T00:19:03.513Z,23.35
2019-04-11T00:21:11.353Z,21.15
2019-04-11T00:23:19.058Z,21.60
2019-04-11T00:25:27.790Z,24.65
2019-04-11T00:27:35.608Z,20.72
2019-04-11T00:29:43.483Z,13.72
2019-04-11T00:31:51.258Z,22.62
2019-04-11T00:33:59.134Z,20.68
2019-04-11T00:36:08.483Z,14.25
2019-04-11T00:38:16.245Z,16.25
2019-04-11T00:40:24.879Z,15.25
2019-04-11T00:42:32.845Z,16.10
2019-04-11T00:44:41.182Z,17.30
2019-04-11T00:46:48.973Z,20.65
2019-04-11T00:48:57.699Z,17.80
2019-04-11T00:51:07.691Z,14.95
2019-04-11T00:53:16.014Z,20.97
2019-04-11T00:55:24.748Z,21.27
2019-04-11T00:57:33.491Z,14.63
2019-04-11T00:59:42.405Z,15.53
2019-04-11T01:01:51.573Z,17.87
2019-04-11T01:03:59.332Z,16.70
2019-04-11T01:06:08.315Z,21.52
2019-04-11T01:08:16.134Z,17.05
2019-04-11T01:10:24.538Z,23.40
2019-04-11T01:12:34.398Z,16.55
2019-04-11T01:14:42.725Z,17.87
2019-04-11T01:16:52.682Z,17.35
2019-04-11T01:19:00.623Z,21.07
2019-04-11T01:21:10.250Z,18.82
2019-04-11T01:23:18.566Z,17.98
2019-04-11T01:25:26.332Z,17.90
2019-04-11T01:27:36.149Z,20.37
2019-04-11T01:29:44.089Z,17.42
2019-04-11T01:31:54.753Z,19.77
2019-04-11T01:34:04.442Z,20.82
2019-04-11T01:36:13.695Z,19.48
2019-04-11T01:38:23.689Z,22.17
2019-04-11T01:40:31.903Z,19.07
2019-04-11T01:42:39.859Z,21.33
2019-04-11T01:44:47.775Z,20.88
2019-04-11T01:46:56.284Z,19.65
2019-04-11T01:49:12.242Z,17.20
2019-04-11T01:51:21.189Z,20.37
2019-04-11T01:53:29.196Z,13.43
2019-04-11T01:55:36.968Z,16.23
2019-04-11T01:57:44.751Z,22.87
2019-04-11T01:59:53.396Z,17.87
2019-04-11T02:02:03.431Z,22.50
2019-04-11T02:04:18.074Z,24.72
2019-04-11T02:06:26.117Z,22.62
2019-04-11T02:08:33.904Z,17.23
2019-04-11T02:10:43.338Z,18.82
2019-04-11T02:12:51.170Z,23.83
2019-04-11T02:14:59.800Z,24.23
2019-04-11T02:17:08.538Z,21.97
2019-04-11T02:19:16.644Z,21.00
2019-04-11T02:21:25.349Z,17.02
2019-04-11T02:23:51.147Z,18.20
2019-04-11T02:26:13.390Z,20.55
2019-04-11T02:28:22.497Z,24.67
2019-04-11T02:30:31.333Z,18.15
2019-04-11T02:32:40.411Z,25.43
2019-04-11T02:34:50.654Z,22.60
2019-04-11T02:37:00.081Z,20.57
2019-04-11T02:39:14.923Z,27.80
2019-04-11T02:41:21.120Z,18.92
2019-04-11T02:43:29.552Z,19.15
2019-04-11T02:45:51.673Z,16.70
2019-04-11T02:47:50.991Z,16.15
2019-04-11T02:49:59.176Z,14.00
2019-04-11T02:52:07.449Z,24.02
2019-04-11T02:54:18.170Z,29.07
2019-04-11T02:56:28.705Z,29.95
2019-04-11T02:58:37.018Z,26.20
2019-04-11T03:00:46.299Z,23.15
2019-04-11T03:02:54.293Z,26.70
2019-04-11T03:05:03.429Z,21.42
2019-04-11T03:07:12.367Z,30.82
2019-04-11T03:09:22.155Z,18.60
2019-04-11T03:11:30.503Z,19.57
2019-04-11T03:13:38.935Z,32.05
2019-04-11T03:16:00.541Z,30.32
2019-04-11T03:18:01.947Z,28.52
2019-04-11T03:20:17.062Z,24.45
2019-04-11T03:22:18.231Z,25.48
2019-04-11T03:24:27.161Z,27.93
2019-04-11T03:26:37.777Z,30.88
2019-04-11T03:28:50.189Z,28.38
2019-04-11T03:31:26.813Z,27.48
2019-04-11T03:37:53.899Z,28.75
2019-04-11T03:39:56.863Z,25.50
2019-04-11T03:42:03.958Z,30.90
2019-04-11T03:44:04.319Z,30.50
2019-04-11T03:46:24.972Z,31.73
2019-04-11T03:48:29.017Z,26.00
2019-04-11T03:50:30.460Z,18.80
2019-04-11T03:52:36.706Z,20.08
2019-04-11T03:54:45.503Z,25.00
2019-04-11T03:56:54.014Z,23.47
2019-04-11T03:59:03.812Z,27.45
2019-04-11T04:01:11.846Z,18.65
2019-04-11T04:03:20.325Z,28.15
2019-04-11T04:05:32.403Z,34.45
2019-04-11T04:07:40.473Z,27.52
2019-04-11T04:09:49.063Z,17.17
2019-04-11T04:11:58.987Z,28.60
2019-04-11T04:14:08.408Z,32.03
2019-04-11T04:16:40.862Z,29.70
2019-04-11T04:18:45.820Z,34.25
2019-04-11T04:21:10.578Z,25.75
2019-04-11T04:23:20.844Z,22.80
2019-04-11T04:25:29.122Z,31.00
2019-04-11T04:27:38.634Z,30.40
2019-04-11T04:29:51.849Z,22.30
2019-04-11T04:31:59.368Z,29.15
2019-04-11T04:34:07.285Z,18.52
2019-04-11T04:36:17.773Z,16.17
2019-04-11T04:38:25.215Z,23.98
2019-04-11T04:40:50.018Z,25.30
2019-04-11T04:42:50.182Z,27.90
2019-04-11T04:44:55.805Z,25.52
2019-04-11T04:47:13.725Z,23.98
2019-04-11T04:49:15.175Z,20.48
2019-04-11T04:51:24.334Z,26.15
2019-04-11T04:53:33.747Z,25.75
2019-04-11T04:55:43.573Z,25.35
2019-04-11T04:57:53.283Z,34.27
2019-04-11T05:00:02.576Z,27.07
2019-04-11T05:02:12.644Z,27.87
2019-04-11T05:04:21.061Z,25.62
2019-04-11T05:06:29.017Z,26.73
2019-04-11T05:08:36.715Z,27.13
2019-04-11T05:10:44.957Z,29.35
2019-04-11T05:12:52.945Z,25.97
2019-04-11T05:15:01.541Z,33.78
2019-04-11T05:17:10.744Z,26.30
2019-04-11T05:19:19.084Z,36.03
2019-04-11T05:21:27.629Z,28.62
2019-04-11T05:23:35.479Z,23.75
2019-04-11T05:25:44.557Z,24.12
2019-04-11T05:27:52.483Z,25.43
2019-04-11T05:30:02.834Z,30.23
2019-04-11T05:32:11.346Z,30.00
2019-04-11T05:34:20.259Z,26.55
2019-04-11T05:36:28.372Z,22.40
2019-04-11T05:38:36.208Z,24.60
2019-04-11T05:40:44.069Z,26.70
2019-04-11T05:42:54.204Z,28.32
2019-04-11T05:45:01.221Z,40.40
2019-04-11T05:47:09.098Z,28.15
2019-04-11T05:49:31.209Z,32.85
2019-04-11T05:51:41.657Z,26.15
2019-04-11T05:53:48.934Z,28.27
2019-04-11T05:55:59.427Z,22.13
2019-04-11T05:58:11.418Z,27.50
2019-04-11T06:00:25.015Z,26.10
2019-04-11T06:02:35.305Z,23.05
2019-04-11T06:04:51.956Z,33.55
2019-04-11T06:07:03.170Z,28.30
2019-04-11T06:09:16.778Z,25.37
2019-04-11T06:11:28.445Z,25.25
2019-04-11T06:13:38.015Z,25.45
2019-04-11T06:15:47.425Z,32.25
2019-04-11T06:17:55.101Z,23.38
2019-04-11T06:20:25.115Z,24.07
2019-04-11T06:22:32.499Z,23.60
2019-04-11T06:24:56.447Z,20.05
2019-04-11T06:27:18.069Z,21.55
2019-04-11T06:29:36.957Z,19.42
2019-04-11T06:31:49.408Z,19.60
2019-04-11T06:33:59.004Z,18.70
2019-04-11T06:36:06.623Z,17.07
2019-04-11T06:38:32.439Z,34.18
2019-04-11T06:40:54.413Z,18.73
2019-04-11T06:43:18.307Z,26.20
2019-04-11T06:45:44.239Z,16.62
2019-04-11T06:47:56.995Z,20.72
2019-04-11T06:50:22.999Z,18.48
2019-04-11T06:52:32.823Z,22.58
2019-04-11T06:54:52.404Z,20.35
2019-04-11T06:57:02.013Z,15.70
2019-04-11T06:59:12.221Z,20.92
2019-04-11T07:01:22.418Z,17.90
2019-04-11T07:03:32.491Z,21.48
2019-04-11T07:05:42.634Z,32.03
2019-04-11T07:07:52.132Z,22.13
2019-04-11T07:10:02.106Z,26.20
2019-04-11T07:12:28.647Z,15.25
2019-04-11T07:14:55.117Z,21.65
2019-04-11T07:17:21.133Z,20.08
2019-04-11T07:19:30.766Z,18.45
2019-04-11T07:21:39.689Z,19.95
2019-04-11T07:24:05.447Z,17.65
2019-04-11T07:26:20.943Z,20.37
2019-04-11T07:28:33.731Z,14.20
2019-04-11T07:31:00.447Z,20.82
2019-04-11T07:33:28.812Z,18.73
2019-04-11T07:35:55.419Z,27.65
2019-04-11T07:38:03.234Z,20.85
2019-04-11T07:40:11.574Z,18.85
2019-04-11T07:42:26.799Z,108.15
2019-04-11T07:44:35.409Z,22.52
2019-04-11T07:47:12.860Z,9.83
2019-04-11T07:49:10.491Z,21.20
2019-04-11T07:51:19.878Z,18.62
2019-04-11T07:53:28.557Z,14.43
2019-04-11T07:55:38.701Z,16.82
2019-04-11T07:57:48.974Z,20.35
2019-04-11T08:00:08.271Z,12.55
2019-04-11T08:02:24.090Z,17.62
2019-04-11T08:04:49.544Z,10.95
2019-04-11T08:07:05.434Z,19.80
2019-04-11T08:09:26.708Z,16.23
2019-04-11T08:11:36.444Z,15.95
2019-04-11T08:14:02.294Z,13.13
2019-04-11T08:16:28.990Z,19.05
2019-04-11T08:18:45.438Z,20.50
2019-04-11T08:21:04.215Z,12.70
2019-04-11T08:23:12.086Z,16.17
2019-04-11T08:25:21.634Z,6.17
2019-04-11T08:27:50.015Z,17.02
2019-04-11T08:29:51.540Z,144.55
2019-04-11T08:32:09.506Z,16.15
2019-04-11T08:34:21.886Z,16.93
2019-04-11T08:36:29.634Z,17.15
2019-04-11T08:38:37.377Z,11.85
2019-04-11T08:41:03.102Z,16.97
2019-04-11T08:43:12.981Z,11.33
2019-04-11T08:45:23.742Z,16.62
2019-04-11T08:47:44.744Z,16.85
2019-04-11T08:49:45.913Z,16.85
2019-04-11T08:51:56.092Z,18.12
2019-04-11T08:54:21.835Z,17.62
2019-04-11T08:56:29.636Z,17.02
2019-04-11T08:58:53.851Z,17.92
2019-04-11T09:01:03.475Z,15.72
2019-04-11T09:03:20.165Z,18.10
2019-04-11T09:05:45.688Z,18.52
2019-04-11T09:07:56.141Z,10.75
2019-04-11T09:10:24.151Z,16.17
2019-04-11T09:12:32.135Z,11.12
2019-04-11T09:14:52.682Z,10.65
2019-04-11T09:17:05.910Z,11.38
2019-04-11T09:19:25.070Z,9.80
2019-04-11T09:21:51.026Z,16.48
2019-04-11T09:23:59.667Z,20.97
2019-04-11T09:26:09.831Z,12.98
2019-04-11T09:28:19.722Z,19.85
2019-04-11T09:30:45.621Z,19.23
2019-04-11T09:33:10.952Z,22.20
2019-04-11T09:35:33.442Z,18.87
2019-04-11T09:37:44.228Z,13.10
2019-04-11T09:39:55.171Z,19.05
2019-04-11T09:42:22.716Z,14.90
2019-04-11T09:44:46.726Z,15.70
2019-04-11T09:47:09.513Z,16.40
2019-04-11T09:49:18.388Z,16.82
2019-04-11T09:51:29.467Z,17.95
2019-04-11T09:53:41.064Z,14.87
2019-04-11T09:56:02.659Z,16.95
2019-04-11T09:58:25.294Z,13.10
2019-04-11T10:00:51.163Z,14.78
2019-04-11T10:03:03.336Z,25.50
2019-04-11T10:05:13.767Z,34.78
2019-04-11T10:07:23.760Z,13.58
2019-04-11T10:09:48.491Z,9.33
2019-04-11T10:12:15.813Z,17.65
2019-04-11T10:14:24.031Z,18.75
2019-04-11T10:16:34.148Z,11.40
2019-04-11T10:18:47.798Z,15.35
2019-04-11T10:20:57.076Z,16.70
2019-04-11T10:23:10.644Z,10.82
2019-04-11T10:25:21.243Z,15.15
2019-04-11T10:27:28.955Z,18.40
2019-04-11T10:29:36.581Z,14.13
2019-04-11T10:31:48.860Z,13.62
2019-04-11T10:33:59.418Z,20.65
2019-04-11T10:36:21.444Z,13.10
2019-04-11T10:38:29.253Z,33.95
2019-04-11T10:40:48.232Z,52.98
2019-04-11T10:42:56.069Z,15.15
2019-04-11T10:45:25.315Z,15.83
2019-04-11T10:47:34.629Z,32.20
2019-04-11T10:49:42.208Z,57.58
2019-04-11T10:51:56.064Z,42.93
2019-04-11T10:54:05.841Z,63.63
2019-04-11T10:56:19.148Z,87.67
2019-04-11T10:58:28.877Z,14.90
2019-04-11T11:00:39.641Z,33.38
2019-04-11T11:02:53.650Z,43.90
2019-04-11T11:05:01.582Z,22.15
2019-04-11T11:07:11.466Z,21.02
2019-04-11T11:09:30.287Z,28.62
2019-04-11T11:11:42.310Z,13.80
2019-04-11T11:13:52.111Z,22.13
2019-04-11T11:16:00.300Z,37.53
2019-04-11T11:19:13.951Z,30.17
2019-04-11T11:20:41.477Z,35.73
2019-04-11T11:22:49.102Z,36.58
2019-04-11T11:25:11.597Z,13.78
2019-04-11T11:27:18.546Z,18.62
2019-04-11T11:29:29.071Z,22.82
2019-04-11T11:31:36.561Z,22.67
2019-04-11T11:33:45.309Z,33.20
2019-04-11T11:36:10.739Z,30.08
2019-04-11T11:38:19.901Z,20.90
2019-04-11T11:40:44.700Z,18.15
2019-04-11T11:43:09.147Z,17.02
2019-04-11T11:45:25.621Z,26.77
2019-04-11T11:47:46.978Z,25.45
2019-04-11T11:50:00.518Z,22.45
2019-04-11T11:52:07.535Z,25.35
2019-04-11T11:54:19.919Z,22.25
2019-04-11T11:56:27.841Z,11.25
2019-04-11T11:58:47.884Z,17.23
2019-04-11T12:00:57.236Z,23.67
2019-04-11T12:03:12.889Z,23.15
2019-04-11T12:05:22.433Z,13.72
2019-04-11T12:07:39.340Z,17.27
2019-04-11T12:10:04.983Z,17.20
2019-04-11T12:12:31.534Z,16.30
2019-04-11T12:14:57.582Z,18.92
2019-04-11T12:17:16.446Z,21.05
2019-04-11T12:19:26.870Z,20.10
2019-04-11T12:21:36.747Z,16.17
2019-04-11T12:24:03.784Z,25.15
2019-04-11T12:26:07.540Z,20.97
2019-04-11T12:28:27.681Z,14.38
2019-04-11T12:30:37.504Z,16.42
2019-04-11T12:32:49.740Z,22.85
2019-04-11T12:35:17.830Z,16.55
2019-04-11T12:37:29.854Z,18.65
2019-04-11T12:39:45.261Z,18.30
2019-04-11T12:41:54.776Z,24.80
2019-04-11T12:44:05.303Z,21.40
2019-04-11T12:46:30.836Z,13.05
2019-04-11T12:48:39.998Z,17.85
2019-04-11T12:50:57.450Z,16.20
2019-04-11T12:53:07.991Z,16.77
2019-04-11T12:55:17.394Z,19.30
2019-04-11T12:57:42.994Z,15.43
2019-04-11T12:59:52.494Z,17.57
2019-04-11T13:02:10.962Z,17.82
2019-04-11T13:04:23.632Z,19.00
2019-04-11T13:06:49.072Z,13.95
2019-04-11T13:09:14.541Z,14.93
2019-04-11T13:11:23.940Z,15.43
2019-04-11T13:13:42.138Z,13.75
2019-04-11T13:15:54.554Z,17.17
2019-04-11T13:18:19.890Z,14.83
2019-04-11T13:20:47.000Z,9.43
2019-04-11T13:23:03.770Z,15.75
2019-04-11T13:25:25.176Z,13.75
2019-04-11T13:27:34.645Z,12.05
2019-04-11T13:29:42.331Z,62.98
2019-04-11T13:31:52.645Z,18.10
2019-04-11T13:34:03.795Z,12.75
2019-04-11T13:36:29.762Z,26.65
2019-04-11T13:38:38.310Z,12.65
2019-04-11T13:40:46.326Z,49.33
2019-04-11T13:43:12.075Z,28.47
2019-04-11T13:45:19.958Z,21.73
2019-04-11T13:47:39.530Z,17.37
2019-04-11T13:49:49.195Z,21.27
2019-04-11T13:52:01.359Z,25.55
2019-04-11T13:54:26.903Z,15.72
2019-04-11T13:56:36.361Z,12.20
2019-04-11T13:59:02.019Z,37.08
2019-04-11T14:01:10.349Z,14.73
2019-04-11T14:03:20.844Z,12.90
2019-04-11T14:05:30.261Z,14.15
2019-04-11T14:07:38.415Z,23.60
2019-04-11T14:09:50.547Z,25.65
2019-04-11T14:11:58.397Z,14.33
2019-04-11T14:14:12.064Z,20.48
2019-04-11T14:16:21.589Z,13.38
2019-04-11T14:18:30.996Z,16.57
2019-04-11T14:20:44.561Z,18.20
2019-04-11T14:23:01.371Z,15.95
2019-04-11T14:25:14.964Z,15.08
2019-04-11T14:27:29.023Z,15.05
2019-04-11T14:29:41.193Z,44.45
2019-04-11T14:31:54.598Z,19.52
2019-04-11T14:34:20.367Z,34.10
2019-04-11T14:36:47.038Z,17.37
2019-04-11T14:38:56.453Z,16.57
2019-04-11T14:41:12.436Z,24.45
2019-04-11T14:43:22.682Z,17.45
2019-04-11T14:45:42.568Z,15.93
2019-04-11T14:48:10.208Z,14.60
2019-04-11T14:50:18.203Z,16.60
2019-04-11T14:52:31.656Z,16.97
2019-04-11T14:54:40.994Z,15.35
2019-04-11T14:57:00.560Z,17.32
2019-04-11T14:59:13.338Z,22.20
2019-04-11T15:01:23.726Z,20.12
2019-04-11T15:03:43.138Z,16.42
2019-04-11T15:06:02.613Z,18.10
2019-04-11T15:08:12.334Z,18.67
2019-04-11T15:10:40.140Z,22.20
2019-04-11T15:12:48.814Z,37.50
2019-04-11T15:14:56.339Z,22.80
2019-04-11T15:17:03.965Z,25.40
2019-04-11T15:19:12.329Z,21.17
2019-04-11T15:21:25.780Z,38.38
2019-04-11T15:23:37.522Z,21.27
2019-04-11T15:25:44.425Z,18.17
2019-04-11T15:27:54.636Z,22.27
2019-04-11T15:30:04.138Z,23.32
2019-04-11T15:32:16.386Z,21.52
2019-04-11T15:34:28.699Z,19.30
2019-04-11T15:36:39.849Z,18.57
2019-04-11T15:39:05.602Z,21.77
2019-04-11T15:41:13.898Z,20.48
2019-04-11T15:43:42.266Z,22.80
2019-04-11T15:45:49.633Z,18.57
2019-04-11T15:48:20.140Z,39.83
2019-04-11T15:50:39.768Z,41.83
2019-04-11T15:52:49.185Z,25.72
2019-04-11T15:55:02.439Z,22.42
2019-04-11T15:57:26.734Z,21.35
2019-04-11T15:59:36.678Z,20.23
2019-04-11T16:02:04.303Z,25.48
2019-04-11T16:04:29.910Z,16.82
2019-04-11T16:06:55.323Z,17.73
2019-04-11T16:09:03.993Z,19.75
2019-04-11T16:11:12.386Z,47.03
2019-04-11T16:13:22.504Z,25.02
2019-04-11T16:15:34.848Z,79.25
2019-04-11T16:17:45.206Z,41.58
2019-04-11T16:19:55.705Z,18.62
2019-04-11T16:22:24.722Z,17.85
2019-04-11T16:24:33.252Z,18.25
2019-04-11T16:26:48.593Z,19.30
2019-04-11T16:28:59.202Z,19.32
2019-04-11T16:31:09.461Z,22.73
2019-04-11T16:33:25.053Z,22.95
2019-04-11T16:35:40.394Z,22.30
2019-04-11T16:37:52.512Z,26.57
2019-04-11T16:40:18.109Z,26.25
2019-04-11T16:42:27.802Z,26.07
2019-04-11T16:44:47.420Z,22.58
2019-04-11T16:47:12.811Z,31.75
2019-04-11T16:49:20.730Z,24.85
2019-04-11T16:51:31.075Z,26.37
2019-04-11T16:53:38.169Z,35.25
2019-04-11T16:55:45.990Z,42.13
2019-04-11T16:57:54.021Z,34.33
2019-04-11T17:00:01.815Z,35.52
2019-04-11T17:02:10.787Z,34.73
2019-04-11T17:04:18.569Z,32.73
2019-04-11T17:06:41.177Z,40.85
2019-04-11T17:08:51.689Z,35.68
2019-04-11T17:11:04.179Z,49.70
2019-04-11T17:13:11.965Z,38.55
2019-04-11T17:15:20.889Z,40.95
2019-04-11T17:17:30.612Z,42.30
2019-04-11T17:19:39.310Z,41.68
2019-04-11T17:21:48.424Z,51.53
2019-04-11T17:23:56.646Z,72.42
2019-04-11T17:26:06.271Z,55.63
2019-04-11T17:28:14.282Z,53.25
2019-04-11T17:30:24.531Z,51.00
2019-04-11T17:32:31.644Z,54.75
2019-04-11T17:34:39.936Z,63.02
2019-04-11T17:36:47.789Z,71.53
2019-04-11T17:38:55.584Z,75.83
2019-04-11T17:41:03.310Z,75.83
2019-04-11T17:43:13.448Z,65.45
2019-04-11T17:45:20.633Z,62.60
2019-04-11T17:47:28.551Z,77.92
2019-04-11T17:49:36.385Z,70.65
2019-04-11T17:51:55.357Z,63.65
2019-04-11T17:53:55.890Z,70.90
2019-04-11T17:56:03.682Z,73.17
2019-04-11T17:58:11.477Z,72.25
2019-04-11T18:00:29.937Z,71.17
2019-04-11T18:02:39.008Z,72.78
2019-04-11T18:04:48.179Z,73.45
2019-04-11T18:06:56.096Z,74.58
2019-04-11T18:09:06.100Z,88.37
2019-04-11T18:11:14.224Z,81.50
2019-04-11T18:13:22.032Z,82.60
2019-04-11T18:15:31.267Z,81.25
2019-04-11T18:17:40.763Z,82.65
2019-04-11T18:19:48.575Z,79.65
2019-04-11T18:22:07.454Z,54.98
2019-04-11T18:24:06.467Z,63.42
2019-04-11T18:26:14.650Z,86.57
2019-04-11T18:28:22.539Z,100.75
2019-04-11T18:30:30.315Z,47.93
2019-04-11T18:32:39.555Z,57.23
2019-04-11T18:34:47.255Z,54.77
2019-04-11T18:36:55.026Z,98.40
2019-04-11T18:39:05.963Z,70.03
2019-04-11T18:41:14.011Z,70.60
2019-04-11T18:43:25.441Z,70.47
2019-04-11T18:45:34.089Z,82.12
2019-04-11T18:47:41.776Z,68.42
2019-04-11T18:49:50.949Z,75.20
2019-04-11T18:51:59.147Z,62.80
2019-04-11T18:54:07.837Z,65.97
2019-04-11T18:56:15.851Z,52.83
2019-04-11T18:58:23.590Z,65.75
2019-04-11T19:00:31.542Z,51.80
2019-04-11T19:02:40.204Z,21.12
2019-04-11T19:04:48.478Z,21.02
2019-04-11T19:06:56.260Z,19.27
2019-04-11T19:09:06.192Z,29.10
2019-04-11T19:11:15.733Z,16.90
2019-04-11T19:13:24.135Z,18.95
2019-04-11T19:15:31.998Z,20.08
2019-04-11T19:17:39.896Z,15.20
2019-04-11T19:19:48.931Z,22.85
2019-04-11T19:21:57.146Z,15.80
2019-04-11T19:24:09.057Z,16.73
2019-04-11T19:26:15.313Z,14.63
2019-04-11T19:28:25.207Z,14.13
2019-04-11T19:30:32.708Z,14.50
2019-04-11T19:32:40.669Z,12.30
2019-04-11T19:34:48.346Z,16.45
2019-04-11T19:36:56.222Z,15.00
2019-04-11T19:39:05.951Z,14.70
2019-04-11T19:41:17.150Z,15.35
2019-04-11T19:43:24.302Z,11.68
2019-04-11T19:45:32.076Z,14.83
2019-04-11T19:47:39.778Z,11.38
2019-04-11T19:49:47.537Z,15.32
2019-04-11T19:51:55.465Z,12.78
2019-04-11T19:54:03.911Z,15.60
2019-04-11T19:56:16.348Z,8.70
2019-04-11T19:58:25.756Z,12.35
2019-04-11T20:00:33.982Z,21.40
2019-04-11T20:02:41.885Z,19.10
2019-04-11T20:04:49.769Z,14.45
2019-04-11T20:06:57.586Z,15.03
2019-04-11T20:09:08.671Z,15.63
2019-04-11T20:11:18.124Z,12.10
2019-04-11T20:13:25.990Z,9.18
2019-04-11T20:15:37.183Z,15.65
2019-04-11T20:17:44.936Z,11.20
2019-04-11T20:20:01.150Z,17.12
2019-04-11T20:22:02.236Z,14.78
2019-04-11T20:24:14.112Z,15.95
2019-04-11T20:26:20.949Z,15.72
2019-04-11T20:28:29.050Z,21.87
2019-04-11T20:30:36.933Z,16.90
2019-04-11T20:32:44.715Z,17.65
2019-04-11T20:34:53.885Z,16.67
2019-04-11T20:37:02.293Z,17.25
2019-04-11T20:39:15.031Z,16.77
2019-04-11T20:41:23.287Z,17.67
2019-04-11T20:43:32.445Z,17.05
2019-04-11T20:45:42.060Z,9.88
2019-04-11T20:47:51.035Z,12.10
2019-04-11T20:49:58.716Z,17.80
2019-04-11T20:52:06.379Z,16.17
2019-04-11T20:54:14.153Z,19.07
2019-04-11T20:56:24.302Z,17.65
2019-04-11T20:58:32.493Z,17.02
2019-04-11T21:00:50.319Z,26.07
2019-04-11T21:02:50.337Z,10.35
2019-04-11T21:04:58.915Z,21.10
2019-04-11T21:07:07.629Z,18.50
2019-04-11T21:09:15.478Z,13.53
2019-04-11T21:11:24.076Z,19.60
2019-04-11T21:13:32.746Z,12.20
2019-04-11T21:15:40.524Z,18.73
2019-04-11T21:17:48.376Z,14.13
2019-04-11T21:19:56.078Z,10.43
2019-04-11T21:22:03.849Z,20.20
2019-04-11T21:24:11.722Z,16.30
2019-04-11T21:26:19.602Z,12.85
2019-04-11T21:28:29.809Z,14.23
2019-04-11T21:30:36.868Z,12.47
2019-04-11T21:32:44.741Z,21.10
2019-04-11T21:34:52.611Z,10.48
2019-04-11T21:37:02.535Z,18.10
2019-04-11T21:39:09.885Z,22.05
2019-04-11T21:41:17.758Z,15.50
2019-04-11T21:43:25.576Z,16.67
2019-04-11T21:45:35.855Z,17.20
2019-04-11T21:47:44.873Z,16.90
2019-04-11T21:49:52.718Z,18.80
2019-04-11T21:52:03.065Z,17.77
2019-04-11T21:54:14.650Z,21.87
2019-04-11T21:56:20.484Z,18.15
2019-04-11T21:58:28.180Z,14.38
2019-04-11T22:00:41.062Z,17.10
2019-04-11T22:02:51.914Z,8.00
2019-04-11T22:05:00.103Z,17.32
2019-04-11T22:07:07.964Z,19.35
2019-04-11T22:09:16.236Z,17.07
2019-04-11T22:11:24.045Z,19.85
2019-04-11T22:13:31.898Z,12.55
2019-04-11T22:15:42.123Z,18.42
2019-04-11T22:17:49.173Z,18.80
2019-04-11T22:19:56.981Z,18.45
2019-04-11T22:22:04.797Z,14.28
2019-04-11T22:24:12.502Z,10.53
2019-04-11T22:26:20.185Z,17.20
2019-04-11T22:28:27.859Z,16.15
2019-04-11T22:30:35.588Z,17.85
2019-04-11T22:32:45.008Z,21.27
2019-04-11T22:34:52.850Z,22.35
2019-04-11T22:37:00.690Z,12.58
2019-04-11T22:39:10.685Z,18.12
2019-04-11T22:41:19.626Z,12.18
2019-04-11T22:43:27.336Z,15.93
2019-04-11T22:45:37.820Z,10.82
2019-04-11T22:47:45.876Z,25.45
2019-04-11T22:49:53.891Z,28.07
2019-04-11T22:52:01.755Z,17.92
2019-04-11T22:54:12.922Z,18.02
2019-04-11T22:56:19.035Z,25.62
2019-04-11T22:58:26.818Z,7.78
2019-04-11T23:00:34.665Z,18.12
2019-04-11T23:02:48.299Z,41.60
2019-04-11T23:05:14.947Z,27.95
2019-04-11T23:07:40.351Z,25.82
2019-04-11T23:10:07.631Z,28.07
2019-04-11T23:12:32.532Z,15.20
2019-04-11T23:14:57.525Z,16.52
2019-04-11T23:17:23.818Z,10.95
2019-04-11T23:19:31.608Z,16.20
2019-04-11T23:21:39.532Z,14.40
2019-04-11T23:23:47.236Z,20.37
2019-04-11T23:25:56.091Z,19.98
2019-04-11T23:28:03.895Z,17.45
2019-04-11T23:30:15.917Z,13.83
2019-04-11T23:32:23.276Z,13.00
2019-04-11T23:34:31.032Z,16.20
2019-04-11T23:36:38.830Z,10.78
2019-04-11T23:38:46.498Z,17.07
2019-04-11T23:40:54.242Z,15.95
2019-04-11T23:43:02.044Z,17.37
2019-04-11T23:45:09.887Z,15.83
2019-04-11T23:47:20.130Z,15.98
2019-04-11T23:49:28.279Z,17.25
2019-04-11T23:51:35.962Z,16.80
2019-04-11T23:53:43.733Z,17.40
2019-04-11T23:55:52.411Z,17.52
2019-04-11T23:58:01.696Z,17.92
